sensor_id;sensor_type;location;lat;lon;timestamp;temperature;humidity
52889;DHT22;41413;52.770;6.892;2023-04-24T00:00:47;9.70;99.90
52889;DHT22;41413;52.770;6.892;2023-04-24T00:03:13;9.60;99.90
52889;DHT22;41413;52.770;6.892;2023-04-24T00:05:40;9.70;99.90
52889;DHT22;41413;52.770;6.892;2023-04-24T00:08:08;9.70;99.90
52889;DHT22;41413;52.770;6.892;2023-04-24T00:10:35;9.70;99.90
52889;DHT22;41413;52.770;6.892;2023-04-24T00:13:01;9.60;99.90
52889;DHT22;41413;52.770;6.892;2023-04-24T00:15:28;9.60;99.90
52889;DHT22;41413;52.770;6.892;2023-04-24T00:17:55;9.50;99.90
52889;DHT22;41413;52.770;6.892;2023-04-24T00:20:22;9.50;99.90
52889;DHT22;41413;52.770;6.892;2023-04-24T00:22:49;9.50;99.90
52889;DHT22;41413;52.770;6.892;2023-04-24T00:25:16;9.60;99.90
52889;DHT22;41413;52.770;6.892;2023-04-24T00:27:42;9.60;99.90
52889;DHT22;41413;52.770;6.892;2023-04-24T00:30:09;9.60;99.90
52889;DHT22;41413;52.770;6.892;2023-04-24T00:32:36;9.50;99.90
52889;DHT22;41413;52.770;6.892;2023-04-24T00:35:03;9.50;99.90
52889;DHT22;41413;52.770;6.892;2023-04-24T00:37:30;9.50;99.90
52889;DHT22;41413;52.770;6.892;2023-04-24T00:39:57;9.50;99.90
52889;DHT22;41413;52.770;6.892;2023-04-24T00:42:24;9.50;99.90
52889;DHT22;41413;52.770;6.892;2023-04-24T00:44:51;9.50;99.90
52889;DHT22;41413;52.770;6.892;2023-04-24T00:47:19;9.40;99.90
52889;DHT22;41413;52.770;6.892;2023-04-24T00:49:46;9.40;99.90
52889;DHT22;41413;52.770;6.892;2023-04-24T00:52:13;9.40;99.90
52889;DHT22;41413;52.770;6.892;2023-04-24T00:54:44;9.30;99.90
52889;DHT22;41413;52.770;6.892;2023-04-24T00:57:13;9.40;99.90
52889;DHT22;41413;52.770;6.892;2023-04-24T00:59:42;9.40;99.90
52889;DHT22;41413;52.770;6.892;2023-04-24T01:02:10;9.40;99.90
52889;DHT22;41413;52.770;6.892;2023-04-24T01:04:37;9.40;99.90
52889;DHT22;41413;52.770;6.892;2023-04-24T01:07:05;9.40;99.90
52889;DHT22;41413;52.770;6.892;2023-04-24T01:09:40;9.30;99.90
52889;DHT22;41413;52.770;6.892;2023-04-24T01:12:10;9.30;99.90
52889;DHT22;41413;52.770;6.892;2023-04-24T01:14:37;9.30;99.90
52889;DHT22;41413;52.770;6.892;2023-04-24T01:17:04;9.30;99.90
52889;DHT22;41413;52.770;6.892;2023-04-24T01:19:32;9.30;99.90
52889;DHT22;41413;52.770;6.892;2023-04-24T01:22:02;9.30;99.90
52889;DHT22;41413;52.770;6.892;2023-04-24T01:24:29;9.20;99.90
52889;DHT22;41413;52.770;6.892;2023-04-24T01:26:56;9.20;99.90
52889;DHT22;41413;52.770;6.892;2023-04-24T01:29:23;9.00;99.90
52889;DHT22;41413;52.770;6.892;2023-04-24T01:31:51;9.20;99.90
52889;DHT22;41413;52.770;6.892;2023-04-24T01:34:17;9.20;99.90
52889;DHT22;41413;52.770;6.892;2023-04-24T01:36:45;9.20;99.90
52889;DHT22;41413;52.770;6.892;2023-04-24T01:39:13;9.20;99.90
52889;DHT22;41413;52.770;6.892;2023-04-24T01:41:40;9.20;99.90
52889;DHT22;41413;52.770;6.892;2023-04-24T01:44:07;9.10;99.90
52889;DHT22;41413;52.770;6.892;2023-04-24T01:46:34;9.20;99.90
52889;DHT22;41413;52.770;6.892;2023-04-24T01:49:02;9.30;99.90
52889;DHT22;41413;52.770;6.892;2023-04-24T01:51:29;9.20;99.90
52889;DHT22;41413;52.770;6.892;2023-04-24T01:53:56;9.30;99.90
52889;DHT22;41413;52.770;6.892;2023-04-24T01:56:23;9.20;99.90
52889;DHT22;41413;52.770;6.892;2023-04-24T01:58:52;9.20;99.90
52889;DHT22;41413;52.770;6.892;2023-04-24T02:01:20;9.20;99.90
52889;DHT22;41413;52.770;6.892;2023-04-24T02:03:47;9.30;99.90
52889;DHT22;41413;52.770;6.892;2023-04-24T02:06:14;9.30;99.90
52889;DHT22;41413;52.770;6.892;2023-04-24T02:08:41;9.20;99.90
52889;DHT22;41413;52.770;6.892;2023-04-24T02:11:11;9.30;99.90
52889;DHT22;41413;52.770;6.892;2023-04-24T02:13:37;9.30;99.90
52889;DHT22;41413;52.770;6.892;2023-04-24T02:16:04;9.30;99.90
52889;DHT22;41413;52.770;6.892;2023-04-24T02:18:31;9.30;99.90
52889;DHT22;41413;52.770;6.892;2023-04-24T02:20:58;9.30;99.90
52889;DHT22;41413;52.770;6.892;2023-04-24T02:23:24;9.30;99.90
52889;DHT22;41413;52.770;6.892;2023-04-24T02:25:52;9.40;99.90
52889;DHT22;41413;52.770;6.892;2023-04-24T02:28:19;9.40;99.90
52889;DHT22;41413;52.770;6.892;2023-04-24T02:30:46;9.40;99.90
52889;DHT22;41413;52.770;6.892;2023-04-24T02:33:13;9.50;99.90
52889;DHT22;41413;52.770;6.892;2023-04-24T02:35:39;9.50;99.90
52889;DHT22;41413;52.770;6.892;2023-04-24T02:38:06;9.50;99.90
52889;DHT22;41413;52.770;6.892;2023-04-24T02:40:33;9.50;99.90
52889;DHT22;41413;52.770;6.892;2023-04-24T02:42:59;9.50;99.90
52889;DHT22;41413;52.770;6.892;2023-04-24T02:45:26;9.40;99.90
52889;DHT22;41413;52.770;6.892;2023-04-24T02:47:53;9.50;99.90
52889;DHT22;41413;52.770;6.892;2023-04-24T02:50:19;9.40;99.90
52889;DHT22;41413;52.770;6.892;2023-04-24T02:52:46;9.40;99.90
52889;DHT22;41413;52.770;6.892;2023-04-24T02:55:13;9.40;99.90
52889;DHT22;41413;52.770;6.892;2023-04-24T02:57:39;9.40;99.90
52889;DHT22;41413;52.770;6.892;2023-04-24T03:00:07;9.50;99.90
52889;DHT22;41413;52.770;6.892;2023-04-24T03:02:33;9.50;99.90
52889;DHT22;41413;52.770;6.892;2023-04-24T03:05:01;9.40;99.90
52889;DHT22;41413;52.770;6.892;2023-04-24T03:07:28;9.50;99.90
52889;DHT22;41413;52.770;6.892;2023-04-24T03:09:55;9.50;99.90
52889;DHT22;41413;52.770;6.892;2023-04-24T03:12:24;9.40;99.90
52889;DHT22;41413;52.770;6.892;2023-04-24T03:14:51;9.40;99.90
52889;DHT22;41413;52.770;6.892;2023-04-24T03:17:17;9.40;99.90
52889;DHT22;41413;52.770;6.892;2023-04-24T03:19:44;9.30;99.90
52889;DHT22;41413;52.770;6.892;2023-04-24T03:22:11;9.30;99.90
52889;DHT22;41413;52.770;6.892;2023-04-24T03:24:38;9.30;99.90
52889;DHT22;41413;52.770;6.892;2023-04-24T03:27:05;9.30;99.90
52889;DHT22;41413;52.770;6.892;2023-04-24T03:29:31;9.30;99.90
52889;DHT22;41413;52.770;6.892;2023-04-24T03:31:58;9.30;99.90
52889;DHT22;41413;52.770;6.892;2023-04-24T03:34:25;9.20;99.90
52889;DHT22;41413;52.770;6.892;2023-04-24T03:36:52;9.20;99.90
52889;DHT22;41413;52.770;6.892;2023-04-24T03:39:19;9.20;99.90
52889;DHT22;41413;52.770;6.892;2023-04-24T03:41:45;9.20;99.90
52889;DHT22;41413;52.770;6.892;2023-04-24T03:44:12;9.10;99.90
52889;DHT22;41413;52.770;6.892;2023-04-24T03:46:39;9.10;99.90
52889;DHT22;41413;52.770;6.892;2023-04-24T03:49:05;9.00;99.90
52889;DHT22;41413;52.770;6.892;2023-04-24T03:51:32;9.00;99.90
52889;DHT22;41413;52.770;6.892;2023-04-24T03:53:59;9.00;99.90
52889;DHT22;41413;52.770;6.892;2023-04-24T03:56:25;9.10;99.90
52889;DHT22;41413;52.770;6.892;2023-04-24T03:58:52;9.10;99.90
52889;DHT22;41413;52.770;6.892;2023-04-24T04:01:19;9.10;99.90
52889;DHT22;41413;52.770;6.892;2023-04-24T04:03:47;9.10;99.90
52889;DHT22;41413;52.770;6.892;2023-04-24T04:06:14;9.10;99.90
52889;DHT22;41413;52.770;6.892;2023-04-24T04:08:41;9.10;99.90
52889;DHT22;41413;52.770;6.892;2023-04-24T04:11:07;9.10;99.90
52889;DHT22;41413;52.770;6.892;2023-04-24T04:13:34;9.10;99.90
52889;DHT22;41413;52.770;6.892;2023-04-24T04:16:01;9.10;99.90
52889;DHT22;41413;52.770;6.892;2023-04-24T04:18:28;9.10;99.90
52889;DHT22;41413;52.770;6.892;2023-04-24T04:20:54;9.10;99.90
52889;DHT22;41413;52.770;6.892;2023-04-24T04:23:21;9.10;99.90
52889;DHT22;41413;52.770;6.892;2023-04-24T04:25:48;9.10;99.90
52889;DHT22;41413;52.770;6.892;2023-04-24T04:28:14;9.10;99.90
52889;DHT22;41413;52.770;6.892;2023-04-24T04:30:41;9.00;99.90
52889;DHT22;41413;52.770;6.892;2023-04-24T04:33:08;9.00;99.90
52889;DHT22;41413;52.770;6.892;2023-04-24T04:35:37;9.00;99.90
52889;DHT22;41413;52.770;6.892;2023-04-24T04:38:03;9.00;99.90
52889;DHT22;41413;52.770;6.892;2023-04-24T04:40:31;9.00;99.90
52889;DHT22;41413;52.770;6.892;2023-04-24T04:42:58;9.00;99.90
52889;DHT22;41413;52.770;6.892;2023-04-24T04:45:24;9.00;99.90
52889;DHT22;41413;52.770;6.892;2023-04-24T04:47:53;9.00;99.90
52889;DHT22;41413;52.770;6.892;2023-04-24T04:50:21;8.90;99.90
52889;DHT22;41413;52.770;6.892;2023-04-24T04:52:49;8.90;99.90
52889;DHT22;41413;52.770;6.892;2023-04-24T04:55:16;8.60;99.90
52889;DHT22;41413;52.770;6.892;2023-04-24T04:57:42;8.90;99.90
52889;DHT22;41413;52.770;6.892;2023-04-24T05:00:09;9.00;99.90
52889;DHT22;41413;52.770;6.892;2023-04-24T05:02:38;9.00;99.90
52889;DHT22;41413;52.770;6.892;2023-04-24T05:05:06;9.00;99.90
52889;DHT22;41413;52.770;6.892;2023-04-24T05:07:33;9.00;99.90
52889;DHT22;41413;52.770;6.892;2023-04-24T05:09:59;8.90;99.90
52889;DHT22;41413;52.770;6.892;2023-04-24T05:12:26;9.00;99.90
52889;DHT22;41413;52.770;6.892;2023-04-24T05:14:53;9.00;99.90
52889;DHT22;41413;52.770;6.892;2023-04-24T05:17:20;9.00;99.90
52889;DHT22;41413;52.770;6.892;2023-04-24T05:19:47;9.00;99.90
52889;DHT22;41413;52.770;6.892;2023-04-24T05:22:14;9.10;99.90
52889;DHT22;41413;52.770;6.892;2023-04-24T05:24:41;9.10;99.90
52889;DHT22;41413;52.770;6.892;2023-04-24T05:27:08;9.10;99.90
52889;DHT22;41413;52.770;6.892;2023-04-24T05:29:34;9.10;99.90
52889;DHT22;41413;52.770;6.892;2023-04-24T05:32:01;9.10;99.90
52889;DHT22;41413;52.770;6.892;2023-04-24T05:34:28;9.10;99.90
52889;DHT22;41413;52.770;6.892;2023-04-24T05:36:54;9.10;99.90
52889;DHT22;41413;52.770;6.892;2023-04-24T05:39:21;9.10;99.90
52889;DHT22;41413;52.770;6.892;2023-04-24T05:41:48;9.20;99.90
52889;DHT22;41413;52.770;6.892;2023-04-24T05:44:15;9.10;99.90
52889;DHT22;41413;52.770;6.892;2023-04-24T05:46:41;9.10;99.90
52889;DHT22;41413;52.770;6.892;2023-04-24T05:49:08;9.10;99.90
52889;DHT22;41413;52.770;6.892;2023-04-24T05:51:35;9.10;99.90
52889;DHT22;41413;52.770;6.892;2023-04-24T05:54:02;9.20;99.90
52889;DHT22;41413;52.770;6.892;2023-04-24T05:56:29;9.20;99.90
52889;DHT22;41413;52.770;6.892;2023-04-24T05:58:56;9.10;99.90
52889;DHT22;41413;52.770;6.892;2023-04-24T06:01:22;9.10;99.90
52889;DHT22;41413;52.770;6.892;2023-04-24T06:03:49;9.10;99.90
52889;DHT22;41413;52.770;6.892;2023-04-24T06:06:16;9.10;99.90
52889;DHT22;41413;52.770;6.892;2023-04-24T06:08:43;9.00;99.90
52889;DHT22;41413;52.770;6.892;2023-04-24T06:11:11;9.00;99.90
52889;DHT22;41413;52.770;6.892;2023-04-24T06:13:38;9.00;99.90
52889;DHT22;41413;52.770;6.892;2023-04-24T06:16:05;9.00;99.90
52889;DHT22;41413;52.770;6.892;2023-04-24T06:18:32;9.00;99.90
52889;DHT22;41413;52.770;6.892;2023-04-24T06:20:58;9.00;99.90
52889;DHT22;41413;52.770;6.892;2023-04-24T06:23:25;8.90;99.90
52889;DHT22;41413;52.770;6.892;2023-04-24T06:25:52;9.40;99.90
52889;DHT22;41413;52.770;6.892;2023-04-24T06:28:18;8.90;99.90
52889;DHT22;41413;52.770;6.892;2023-04-24T06:30:45;8.90;99.90
52889;DHT22;41413;52.770;6.892;2023-04-24T06:33:12;8.90;99.90
52889;DHT22;41413;52.770;6.892;2023-04-24T06:35:47;8.90;99.90
52889;DHT22;41413;52.770;6.892;2023-04-24T06:38:14;8.90;99.90
52889;DHT22;41413;52.770;6.892;2023-04-24T06:40:42;8.90;99.90
52889;DHT22;41413;52.770;6.892;2023-04-24T06:43:11;8.90;99.90
52889;DHT22;41413;52.770;6.892;2023-04-24T06:45:38;8.80;99.90
52889;DHT22;41413;52.770;6.892;2023-04-24T06:48:06;8.70;99.90
52889;DHT22;41413;52.770;6.892;2023-04-24T06:50:33;8.70;99.90
52889;DHT22;41413;52.770;6.892;2023-04-24T06:52:59;8.70;99.90
52889;DHT22;41413;52.770;6.892;2023-04-24T06:55:26;8.70;99.90
52889;DHT22;41413;52.770;6.892;2023-04-24T06:57:53;8.70;99.90
52889;DHT22;41413;52.770;6.892;2023-04-24T07:00:20;8.60;99.90
52889;DHT22;41413;52.770;6.892;2023-04-24T07:02:47;8.60;99.90
52889;DHT22;41413;52.770;6.892;2023-04-24T07:05:13;8.60;99.90
52889;DHT22;41413;52.770;6.892;2023-04-24T07:07:42;8.60;99.90
52889;DHT22;41413;52.770;6.892;2023-04-24T07:10:09;8.70;99.90
52889;DHT22;41413;52.770;6.892;2023-04-24T07:12:36;8.70;99.90
52889;DHT22;41413;52.770;6.892;2023-04-24T07:15:05;8.80;99.90
52889;DHT22;41413;52.770;6.892;2023-04-24T07:17:32;8.70;99.90
52889;DHT22;41413;52.770;6.892;2023-04-24T07:19:59;8.70;99.90
52889;DHT22;41413;52.770;6.892;2023-04-24T07:22:25;8.70;99.90
52889;DHT22;41413;52.770;6.892;2023-04-24T07:24:52;8.70;99.90
52889;DHT22;41413;52.770;6.892;2023-04-24T07:27:18;8.70;99.90
52889;DHT22;41413;52.770;6.892;2023-04-24T07:29:45;8.80;99.90
52889;DHT22;41413;52.770;6.892;2023-04-24T07:32:12;8.80;99.90
52889;DHT22;41413;52.770;6.892;2023-04-24T07:34:39;8.80;99.90
52889;DHT22;41413;52.770;6.892;2023-04-24T07:37:06;8.90;99.90
52889;DHT22;41413;52.770;6.892;2023-04-24T07:39:33;9.00;99.90
52889;DHT22;41413;52.770;6.892;2023-04-24T07:41:59;9.10;99.90
52889;DHT22;41413;52.770;6.892;2023-04-24T07:44:28;9.10;99.90
52889;DHT22;41413;52.770;6.892;2023-04-24T07:46:55;9.10;99.90
52889;DHT22;41413;52.770;6.892;2023-04-24T07:49:23;9.20;99.90
52889;DHT22;41413;52.770;6.892;2023-04-24T07:51:50;9.30;99.90
52889;DHT22;41413;52.770;6.892;2023-04-24T07:54:16;9.30;99.90
52889;DHT22;41413;52.770;6.892;2023-04-24T07:56:43;9.40;99.90
52889;DHT22;41413;52.770;6.892;2023-04-24T07:59:10;9.50;99.90
52889;DHT22;41413;52.770;6.892;2023-04-24T08:01:37;9.60;99.90
52889;DHT22;41413;52.770;6.892;2023-04-24T08:04:04;9.60;99.90
52889;DHT22;41413;52.770;6.892;2023-04-24T08:06:32;9.70;99.90
52889;DHT22;41413;52.770;6.892;2023-04-24T08:09:00;9.70;99.90
52889;DHT22;41413;52.770;6.892;2023-04-24T08:11:27;9.80;99.90
52889;DHT22;41413;52.770;6.892;2023-04-24T08:13:53;9.80;99.90
52889;DHT22;41413;52.770;6.892;2023-04-24T08:16:21;9.80;99.90
52889;DHT22;41413;52.770;6.892;2023-04-24T08:18:50;9.90;99.90
52889;DHT22;41413;52.770;6.892;2023-04-24T08:21:17;9.90;99.90
52889;DHT22;41413;52.770;6.892;2023-04-24T08:23:45;10.00;99.90
52889;DHT22;41413;52.770;6.892;2023-04-24T08:26:13;9.90;99.90
52889;DHT22;41413;52.770;6.892;2023-04-24T08:28:39;9.90;99.90
52889;DHT22;41413;52.770;6.892;2023-04-24T08:31:06;9.90;99.90
52889;DHT22;41413;52.770;6.892;2023-04-24T08:33:33;10.10;99.90
52889;DHT22;41413;52.770;6.892;2023-04-24T08:36:04;10.00;99.90
52889;DHT22;41413;52.770;6.892;2023-04-24T08:38:31;9.90;99.90
52889;DHT22;41413;52.770;6.892;2023-04-24T08:40:59;10.00;99.90
52889;DHT22;41413;52.770;6.892;2023-04-24T08:43:26;10.10;99.90
52889;DHT22;41413;52.770;6.892;2023-04-24T08:45:56;10.10;99.90
52889;DHT22;41413;52.770;6.892;2023-04-24T08:48:23;10.10;99.90
52889;DHT22;41413;52.770;6.892;2023-04-24T08:50:58;10.10;99.90
52889;DHT22;41413;52.770;6.892;2023-04-24T08:53:26;10.00;99.90
52889;DHT22;41413;52.770;6.892;2023-04-24T08:55:55;10.10;99.90
52889;DHT22;41413;52.770;6.892;2023-04-24T08:58:24;10.00;99.90
52889;DHT22;41413;52.770;6.892;2023-04-24T09:00:53;10.00;99.90
52889;DHT22;41413;52.770;6.892;2023-04-24T09:03:21;10.00;99.90
52889;DHT22;41413;52.770;6.892;2023-04-24T09:05:49;9.90;99.90
52889;DHT22;41413;52.770;6.892;2023-04-24T09:08:18;10.00;99.90
52889;DHT22;41413;52.770;6.892;2023-04-24T09:10:45;9.90;99.90
52889;DHT22;41413;52.770;6.892;2023-04-24T09:13:14;9.90;99.90
52889;DHT22;41413;52.770;6.892;2023-04-24T09:15:42;9.90;99.90
52889;DHT22;41413;52.770;6.892;2023-04-24T09:18:09;9.90;99.90
52889;DHT22;41413;52.770;6.892;2023-04-24T09:20:59;9.80;99.90
52889;DHT22;41413;52.770;6.892;2023-04-24T09:23:30;9.90;99.90
52889;DHT22;41413;52.770;6.892;2023-04-24T09:25:59;9.90;99.90
52889;DHT22;41413;52.770;6.892;2023-04-24T09:28:30;9.90;99.90
52889;DHT22;41413;52.770;6.892;2023-04-24T09:31:09;10.00;99.90
52889;DHT22;41413;52.770;6.892;2023-04-24T09:33:36;9.90;99.90
52889;DHT22;41413;52.770;6.892;2023-04-24T09:36:03;9.90;99.90
52889;DHT22;41413;52.770;6.892;2023-04-24T09:38:37;9.90;99.90
52889;DHT22;41413;52.770;6.892;2023-04-24T09:41:06;9.90;99.90
52889;DHT22;41413;52.770;6.892;2023-04-24T09:43:34;9.90;99.90
52889;DHT22;41413;52.770;6.892;2023-04-24T09:46:06;9.90;99.90
52889;DHT22;41413;52.770;6.892;2023-04-24T09:48:35;10.00;99.90
52889;DHT22;41413;52.770;6.892;2023-04-24T09:51:05;9.80;99.90
52889;DHT22;41413;52.770;6.892;2023-04-24T09:53:33;9.80;99.90
52889;DHT22;41413;52.770;6.892;2023-04-24T09:56:07;9.80;99.90
52889;DHT22;41413;52.770;6.892;2023-04-24T09:58:35;9.80;99.90
52889;DHT22;41413;52.770;6.892;2023-04-24T10:01:02;9.80;99.90
52889;DHT22;41413;52.770;6.892;2023-04-24T10:03:31;9.70;99.90
52889;DHT22;41413;52.770;6.892;2023-04-24T10:06:02;9.70;99.90
52889;DHT22;41413;52.770;6.892;2023-04-24T10:08:36;9.70;99.90
52889;DHT22;41413;52.770;6.892;2023-04-24T10:11:04;9.70;99.90
52889;DHT22;41413;52.770;6.892;2023-04-24T10:13:32;9.80;99.90
52889;DHT22;41413;52.770;6.892;2023-04-24T10:16:00;9.70;99.90
52889;DHT22;41413;52.770;6.892;2023-04-24T10:18:27;9.70;99.90
52889;DHT22;41413;52.770;6.892;2023-04-24T10:20:54;9.60;99.90
52889;DHT22;41413;52.770;6.892;2023-04-24T10:23:22;9.60;99.90
52889;DHT22;41413;52.770;6.892;2023-04-24T10:25:50;9.50;99.90
52889;DHT22;41413;52.770;6.892;2023-04-24T10:28:18;9.50;99.90
52889;DHT22;41413;52.770;6.892;2023-04-24T10:30:46;9.50;99.90
52889;DHT22;41413;52.770;6.892;2023-04-24T10:33:14;9.50;99.90
52889;DHT22;41413;52.770;6.892;2023-04-24T10:35:44;9.50;99.90
52889;DHT22;41413;52.770;6.892;2023-04-24T10:38:14;9.40;99.90
52889;DHT22;41413;52.770;6.892;2023-04-24T10:40:42;9.50;99.90
52889;DHT22;41413;52.770;6.892;2023-04-24T10:43:09;9.50;99.90
52889;DHT22;41413;52.770;6.892;2023-04-24T10:45:39;9.60;99.90
52889;DHT22;41413;52.770;6.892;2023-04-24T10:48:07;9.70;99.90
52889;DHT22;41413;52.770;6.892;2023-04-24T10:51:10;9.90;99.90
52889;DHT22;41413;52.770;6.892;2023-04-24T10:53:37;9.80;99.90
52889;DHT22;41413;52.770;6.892;2023-04-24T10:56:07;9.80;99.90
52889;DHT22;41413;52.770;6.892;2023-04-24T10:58:44;9.70;99.90
52889;DHT22;41413;52.770;6.892;2023-04-24T11:01:27;9.70;99.90
52889;DHT22;41413;52.770;6.892;2023-04-24T11:03:56;9.70;99.90
52889;DHT22;41413;52.770;6.892;2023-04-24T11:06:30;9.70;99.90
52889;DHT22;41413;52.770;6.892;2023-04-24T11:09:09;9.60;99.90
52889;DHT22;41413;52.770;6.892;2023-04-24T11:11:37;9.40;99.90
52889;DHT22;41413;52.770;6.892;2023-04-24T11:14:05;9.30;99.90
52889;DHT22;41413;52.770;6.892;2023-04-24T11:16:53;9.40;99.90
52889;DHT22;41413;52.770;6.892;2023-04-24T11:19:26;9.40;99.90
52889;DHT22;41413;52.770;6.892;2023-04-24T11:22:00;9.40;99.90
52889;DHT22;41413;52.770;6.892;2023-04-24T11:35:05;9.70;99.90
52889;DHT22;41413;52.770;6.892;2023-04-24T11:40:02;9.70;99.90
52889;DHT22;41413;52.770;6.892;2023-04-24T11:42:37;9.70;99.90
52889;DHT22;41413;52.770;6.892;2023-04-24T11:45:08;9.80;99.90
52889;DHT22;41413;52.770;6.892;2023-04-24T11:47:36;9.70;99.90
52889;DHT22;41413;52.770;6.892;2023-04-24T11:50:05;9.70;99.90
52889;DHT22;41413;52.770;6.892;2023-04-24T11:52:36;9.70;99.90
52889;DHT22;41413;52.770;6.892;2023-04-24T11:55:03;9.70;99.90
52889;DHT22;41413;52.770;6.892;2023-04-24T11:57:30;9.70;99.90
52889;DHT22;41413;52.770;6.892;2023-04-24T12:00:01;9.80;99.90
52889;DHT22;41413;52.770;6.892;2023-04-24T12:02:30;9.80;99.90
52889;DHT22;41413;52.770;6.892;2023-04-24T12:04:57;9.90;99.90
52889;DHT22;41413;52.770;6.892;2023-04-24T12:07:24;9.90;99.90
52889;DHT22;41413;52.770;6.892;2023-04-24T12:09:58;9.90;99.90
52889;DHT22;41413;52.770;6.892;2023-04-24T12:12:27;10.00;99.90
52889;DHT22;41413;52.770;6.892;2023-04-24T12:14:56;10.20;99.90
52889;DHT22;41413;52.770;6.892;2023-04-24T12:17:31;10.30;99.90
52889;DHT22;41413;52.770;6.892;2023-04-24T12:20:08;10.50;99.90
52889;DHT22;41413;52.770;6.892;2023-04-24T12:22:53;10.60;99.90
52889;DHT22;41413;52.770;6.892;2023-04-24T12:25:23;10.80;99.90
52889;DHT22;41413;52.770;6.892;2023-04-24T12:30:35;10.60;99.90
52889;DHT22;41413;52.770;6.892;2023-04-24T12:33:03;10.10;99.90
52889;DHT22;41413;52.770;6.892;2023-04-24T12:35:32;10.10;99.90
52889;DHT22;41413;52.770;6.892;2023-04-24T12:38:07;10.10;99.90
52889;DHT22;41413;52.770;6.892;2023-04-24T12:40:34;10.10;99.90
52889;DHT22;41413;52.770;6.892;2023-04-24T12:43:02;10.20;99.90
52889;DHT22;41413;52.770;6.892;2023-04-24T12:45:29;10.20;99.90
52889;DHT22;41413;52.770;6.892;2023-04-24T12:47:55;10.10;99.90
52889;DHT22;41413;52.770;6.892;2023-04-24T12:50:22;10.10;99.90
52889;DHT22;41413;52.770;6.892;2023-04-24T12:52:49;10.10;99.90
52889;DHT22;41413;52.770;6.892;2023-04-24T12:55:15;10.00;99.90
52889;DHT22;41413;52.770;6.892;2023-04-24T12:57:42;9.90;99.90
52889;DHT22;41413;52.770;6.892;2023-04-24T13:00:09;9.90;99.90
52889;DHT22;41413;52.770;6.892;2023-04-24T13:02:36;9.90;99.90
52889;DHT22;41413;52.770;6.892;2023-04-24T13:05:04;9.70;99.90
52889;DHT22;41413;52.770;6.892;2023-04-24T13:07:31;9.80;99.90
52889;DHT22;41413;52.770;6.892;2023-04-24T13:09:57;9.80;99.90
52889;DHT22;41413;52.770;6.892;2023-04-24T13:12:24;9.90;99.90
52889;DHT22;41413;52.770;6.892;2023-04-24T13:14:52;9.80;99.90
52889;DHT22;41413;52.770;6.892;2023-04-24T13:17:19;9.70;99.90
52889;DHT22;41413;52.770;6.892;2023-04-24T13:19:46;9.80;99.90
52889;DHT22;41413;52.770;6.892;2023-04-24T13:22:13;9.90;99.90
52889;DHT22;41413;52.770;6.892;2023-04-24T13:24:40;10.10;99.90
52889;DHT22;41413;52.770;6.892;2023-04-24T13:27:08;10.00;99.90
52889;DHT22;41413;52.770;6.892;2023-04-24T13:29:36;10.20;99.90
52889;DHT22;41413;52.770;6.892;2023-04-24T13:32:02;10.10;99.90
52889;DHT22;41413;52.770;6.892;2023-04-24T13:34:29;10.10;99.90
52889;DHT22;41413;52.770;6.892;2023-04-24T13:36:57;10.20;99.90
52889;DHT22;41413;52.770;6.892;2023-04-24T13:39:25;10.00;99.90
52889;DHT22;41413;52.770;6.892;2023-04-24T13:41:53;10.20;99.90
52889;DHT22;41413;52.770;6.892;2023-04-24T13:44:20;10.00;99.90
52889;DHT22;41413;52.770;6.892;2023-04-24T13:46:50;9.80;99.90
52889;DHT22;41413;52.770;6.892;2023-04-24T13:49:18;9.80;99.90
52889;DHT22;41413;52.770;6.892;2023-04-24T13:51:45;9.90;99.90
52889;DHT22;41413;52.770;6.892;2023-04-24T13:54:12;9.80;99.90
52889;DHT22;41413;52.770;6.892;2023-04-24T13:56:40;9.90;99.90
52889;DHT22;41413;52.770;6.892;2023-04-24T13:59:07;10.00;99.90
52889;DHT22;41413;52.770;6.892;2023-04-24T14:01:34;10.00;99.90
52889;DHT22;41413;52.770;6.892;2023-04-24T14:04:01;9.90;99.90
52889;DHT22;41413;52.770;6.892;2023-04-24T14:06:27;9.80;99.90
52889;DHT22;41413;52.770;6.892;2023-04-24T14:08:54;9.80;99.90
52889;DHT22;41413;52.770;6.892;2023-04-24T14:11:21;9.80;99.90
52889;DHT22;41413;52.770;6.892;2023-04-24T14:13:49;9.80;99.90
52889;DHT22;41413;52.770;6.892;2023-04-24T14:16:16;9.90;99.90
52889;DHT22;41413;52.770;6.892;2023-04-24T14:18:43;9.80;99.90
52889;DHT22;41413;52.770;6.892;2023-04-24T14:21:09;9.80;99.90
52889;DHT22;41413;52.770;6.892;2023-04-24T14:23:36;9.80;99.90
52889;DHT22;41413;52.770;6.892;2023-04-24T14:26:03;9.70;99.90
52889;DHT22;41413;52.770;6.892;2023-04-24T14:28:29;9.70;99.90
52889;DHT22;41413;52.770;6.892;2023-04-24T14:30:56;9.60;99.90
52889;DHT22;41413;52.770;6.892;2023-04-24T14:33:23;9.50;99.90
52889;DHT22;41413;52.770;6.892;2023-04-24T14:35:50;9.60;99.90
52889;DHT22;41413;52.770;6.892;2023-04-24T14:38:16;9.50;99.90
52889;DHT22;41413;52.770;6.892;2023-04-24T14:40:43;9.50;99.90
52889;DHT22;41413;52.770;6.892;2023-04-24T14:43:30;9.50;99.90
52889;DHT22;41413;52.770;6.892;2023-04-24T14:45:56;9.20;99.90
52889;DHT22;41413;52.770;6.892;2023-04-24T14:48:23;9.50;99.90
52889;DHT22;41413;52.770;6.892;2023-04-24T14:50:50;9.10;99.90
52889;DHT22;41413;52.770;6.892;2023-04-24T14:53:17;9.00;99.90
52889;DHT22;41413;52.770;6.892;2023-04-24T14:55:44;9.00;99.90
52889;DHT22;41413;52.770;6.892;2023-04-24T14:58:11;9.20;99.90
52889;DHT22;41413;52.770;6.892;2023-04-24T15:00:38;9.20;99.90
52889;DHT22;41413;52.770;6.892;2023-04-24T15:03:04;9.20;99.90
52889;DHT22;41413;52.770;6.892;2023-04-24T15:05:32;9.10;99.90
52889;DHT22;41413;52.770;6.892;2023-04-24T15:07:59;9.20;99.90
52889;DHT22;41413;52.770;6.892;2023-04-24T15:10:26;9.30;99.90
52889;DHT22;41413;52.770;6.892;2023-04-24T15:12:52;9.30;99.90
52889;DHT22;41413;52.770;6.892;2023-04-24T15:15:19;9.30;99.90
52889;DHT22;41413;52.770;6.892;2023-04-24T15:17:46;9.50;99.90
52889;DHT22;41413;52.770;6.892;2023-04-24T15:20:12;9.50;99.90
52889;DHT22;41413;52.770;6.892;2023-04-24T15:22:39;9.40;99.90
52889;DHT22;41413;52.770;6.892;2023-04-24T15:25:06;9.50;99.90
52889;DHT22;41413;52.770;6.892;2023-04-24T15:27:45;9.50;99.90
52889;DHT22;41413;52.770;6.892;2023-04-24T15:30:13;9.50;99.90
52889;DHT22;41413;52.770;6.892;2023-04-24T15:32:40;9.60;99.90
52889;DHT22;41413;52.770;6.892;2023-04-24T15:35:07;9.60;99.90
52889;DHT22;41413;52.770;6.892;2023-04-24T15:37:37;9.60;99.90
52889;DHT22;41413;52.770;6.892;2023-04-24T15:40:05;9.60;99.90
52889;DHT22;41413;52.770;6.892;2023-04-24T15:42:34;9.60;99.90
52889;DHT22;41413;52.770;6.892;2023-04-24T15:45:01;9.60;99.90
52889;DHT22;41413;52.770;6.892;2023-04-24T15:47:28;9.60;99.90
52889;DHT22;41413;52.770;6.892;2023-04-24T15:49:55;9.70;99.90
52889;DHT22;41413;52.770;6.892;2023-04-24T15:52:21;9.90;99.90
52889;DHT22;41413;52.770;6.892;2023-04-24T15:54:48;9.90;99.90
52889;DHT22;41413;52.770;6.892;2023-04-24T15:57:15;10.00;99.90
52889;DHT22;41413;52.770;6.892;2023-04-24T15:59:42;10.10;99.90
52889;DHT22;41413;52.770;6.892;2023-04-24T16:02:09;10.10;99.90
52889;DHT22;41413;52.770;6.892;2023-04-24T16:04:38;9.90;99.90